Fisher Golf — FUGD — position and weather

sailwx.info

Track history (hours):
 
Tides and Currents Weather Stations Pressure Air Temp Water Temp Dewpoint Dewpoint Depression Visibility Wind Speed Wind Dir Waves Ship Positions

Fisher Golf

Last reported at 2017-May-27 20:41 UTC. Time now 2017-May-29 04:02 UTC.
Position N 46°26' W 003°21'.

Length 20 m.

Type: Fishing. MMSI: 228239000.

Date/timePositionNaut miles runAvg speedWind from/ knotsBaromVisibWave heightAir tempDewpointWater temp
2017-May-27 20:41N 46°26' W 003°21'1 3.7
2017-May-27 20:31N 46°25' W 003°21'1 1.6
2017-May-27 20:00N 46°25' W 003°20'1 2.6
2017-May-27 19:30N 46°24' W 003°20'6 0.3
2017-May-26 17:49N 46°19' W 003°14'1 3.5
2017-May-26 17:30N 46°18' W 003°13'2 2.5
2017-May-26 16:52N 46°17' W 003°12'66 5.9
2017-May-26 05:47N 45°57' W 001°41'3 9.5
2017-May-26 05:30N 45°57' W 001°37'5 9.4
2017-May-26 05:00N 45°55' W 001°30'5 9.3
2017-May-26 04:30N 45°54' W 001°24'3 0.1
2017-May-24 03:16N 45°55' W 001°20'0 0.0
2017-May-24 02:57N 45°55' W 001°20'0 0.1
2017-May-24 01:04N 45°55' W 001°20'0 0.0
2017-May-24 00:55N 45°55' W 001°20'0 0.1
2017-May-24 00:30N 45°55' W 001°20'2 3.7
2017-May-23 23:59N 45°53' W 001°21'3 6.3
2017-May-23 23:30N 45°54' W 001°25'50 8.0
2017-May-23 17:17N 46°06' W 002°35'3 6.6
2017-May-23 16:49N 46°07' W 002°39'29 2.3
2017-May-23 03:58N 46°20' W 003°17'27 2.4
2017-May-22 16:44N 46°39' W 003°45'1 2.6
2017-May-22 16:24N 46°39' W 003°46'1 2.6
2017-May-22 16:00N 46°39' W 003°48'4 2.6
2017-May-22 14:25N 46°39' W 003°54'4 0.5
2017-May-22 05:37N 46°39' W 003°48'0 3.1
2017-May-22 05:30N 46°39' W 003°47'4 2.6
2017-May-22 04:03N 46°38' W 003°42'18 1.6
2017-May-21 16:50N 46°37' W 004°09'  
Track history (hours):
 
Tides and Currents Weather Stations Pressure Air Temp Water Temp Dewpoint Dewpoint Depression Visibility Wind Speed Wind Dir Waves Ship Positions

Fisher Golf

Last reported at 2017-May-27 20:41 UTC. Time now 2017-May-29 04:02 UTC.
Position N 46°26' W 003°21'.

Length 20 m.

Type: Fishing. MMSI: 228239000.

Date/timePositionNaut miles runAvg speedWind from/ knotsBaromVisibWave heightAir tempDewpointWater temp
2017-May-27 20:41N 46°26' W 003°21'1 3.7
2017-May-27 20:31N 46°25' W 003°21'1 1.6
2017-May-27 20:00N 46°25' W 003°20'1 2.6
2017-May-27 19:30N 46°24' W 003°20'6 0.3
2017-May-26 17:49N 46°19' W 003°14'1 3.5
2017-May-26 17:30N 46°18' W 003°13'2 2.5
2017-May-26 16:52N 46°17' W 003°12'66 5.9
2017-May-26 05:47N 45°57' W 001°41'3 9.5
2017-May-26 05:30N 45°57' W 001°37'5 9.4
2017-May-26 05:00N 45°55' W 001°30'5 9.3
2017-May-26 04:30N 45°54' W 001°24'3 0.1
2017-May-24 03:16N 45°55' W 001°20'0 0.0
2017-May-24 02:57N 45°55' W 001°20'0 0.1
2017-May-24 01:04N 45°55' W 001°20'0 0.0
2017-May-24 00:55N 45°55' W 001°20'0 0.1
2017-May-24 00:30N 45°55' W 001°20'2 3.7
2017-May-23 23:59N 45°53' W 001°21'3 6.3
2017-May-23 23:30N 45°54' W 001°25'50 8.0
2017-May-23 17:17N 46°06' W 002°35'3 6.6
2017-May-23 16:49N 46°07' W 002°39'29 2.3
2017-May-23 03:58N 46°20' W 003°17'27 2.4
2017-May-22 16:44N 46°39' W 003°45'1 2.6
2017-May-22 16:24N 46°39' W 003°46'1 2.6
2017-May-22 16:00N 46°39' W 003°48'4 2.6
2017-May-22 14:25N 46°39' W 003°54'4 0.5
2017-May-22 05:37N 46°39' W 003°48'0 3.1
2017-May-22 05:30N 46°39' W 003°47'4 2.6
2017-May-22 04:03N 46°38' W 003°42'18 1.6
2017-May-21 16:50N 46°37' W 004°09'  

Dump ship's entire track history